WetterOnline ( https://www.wetteronline.de )

Wetter aktuell Albstadt

Aktuelles Wetter: Messstetten (900m)

6-stündlich | Neueste Meldungen
Ortszeit Temperatur Wetter
Mo, 15.04. 20:00 11.2° C bewölkt
Mo, 15.04. 14:00 14.4° C wolkig
Mo, 15.04. 8:00 10.9° C wolkig
Mo, 15.04. 2:00 14.4° C wolkig
So, 14.04. 20:00 18.8° C bewölkt
So, 14.04. 14:00 20.6° C leicht bewölkt
So, 14.04. 8:00 15.2° C leicht bewölkt
So, 14.04. 2:00 8.2° C wolkig
Ortszeit Temperatur Wetter
Mo, 15.04. 21:10 9.9° C bewölkt
Mo, 15.04. 21:00 10.1° C wolkig
Mo, 15.04. 20:50 10.1° C wolkig
Mo, 15.04. 20:40 10.4° C bewölkt
Mo, 15.04. 20:30 10.7° C bewölkt
Mo, 15.04. 20:20 10.7° C bewölkt
Mo, 15.04. 20:00 11.2° C bewölkt
Mo, 15.04. 19:30 11.8° C bewölkt
Mo, 15.04. 19:00 12.3° C bewölkt
Mo, 15.04. 18:30 12.7° C bewölkt
Ortszeit Relative Feuchte Sichtweite
Mo, 15.04. 20:00 52% 55 km
Mo, 15.04. 14:00 67% 50 km
Mo, 15.04. 8:00 90% 30 km
Mo, 15.04. 2:00 61% 65 km
So, 14.04. 20:00 46% 60 km
So, 14.04. 14:00 38% 60 km
So, 14.04. 8:00 55% >70 km
So, 14.04. 2:00 69% 60 km
Ortszeit Relative Feuchte Sichtweite
Mo, 15.04. 21:10 52% -
Mo, 15.04. 21:00 55% 60 km
Mo, 15.04. 20:50 55% -
Mo, 15.04. 20:40 55% -
Mo, 15.04. 20:30 53% 60 km
Mo, 15.04. 20:20 53% -
Mo, 15.04. 20:00 52% 55 km
Mo, 15.04. 19:30 50% 60 km
Mo, 15.04. 19:00 49% 60 km
Mo, 15.04. 18:30 50% 60 km
Ortszeit Niederschlagsmenge Niederschlagsart
Mo, 15.04. 20:00 2 l/m2 in 12 Std. -
Mo, 15.04. 14:00 2 l/m2 in 6 Std. Regen
Mo, 15.04. 8:00 0.3 l/m2 in 12 Std. Regen
Mo, 15.04. 2:00 0.0 l/m2 in 6 Std. -
So, 14.04. 20:00 0.0 l/m2 in 12 Std. -
So, 14.04. 14:00 0.0 l/m2 in 6 Std. -
So, 14.04. 8:00 0.0 l/m2 in 12 Std. -
So, 14.04. 2:00 0.0 l/m2 in 6 Std. -
Ortszeit Niederschlagsmenge Niederschlagsart
Mo, 15.04. 21:10 keine Meldung -
Mo, 15.04. 21:00 0.0 l/m2 in 1 Std. -
Mo, 15.04. 20:50 keine Meldung -
Mo, 15.04. 20:40 keine Meldung -
Mo, 15.04. 20:30 0.0 l/m2 in 30 Min -
Mo, 15.04. 20:20 keine Meldung -
Mo, 15.04. 20:00 0.0 l/m2 in 1 Std. -
Mo, 15.04. 19:30 0.0 l/m2 in 30 Min -
Mo, 15.04. 19:00 0.0 l/m2 in 1 Std. -
Mo, 15.04. 18:30 0.0 l/m2 in 30 Min -
Ortszeit Stärke Spitze Richtung
km/h Bft. km/h Grad Sektor
Mo, 15.04. 20:00 37 5 76 260° W
Mo, 15.04. 14:00 20 4 43 270° W
Mo, 15.04. 8:00 7 2 29 270° W
Mo, 15.04. 2:00 11 2 18 240° SW
So, 14.04. 20:00 9 2 33 260° W
So, 14.04. 14:00 17 3 31 300° NW
So, 14.04. 8:00 7 2 18 250° W
So, 14.04. 2:00 6 1 13 200° S
Ortszeit Stärke Spitze Richtung
km/h Bft. km/h Grad Sektor
Mo, 15.04. 21:10 28 4 - 260° W
Mo, 15.04. 21:00 26 4 57 260° W
Mo, 15.04. 20:50 26 4 - 260° W
Mo, 15.04. 20:40 32 5 - 260° W
Mo, 15.04. 20:30 32 5 58 260° W
Mo, 15.04. 20:20 32 5 - 260° W
Mo, 15.04. 20:00 37 5 76 260° W
Mo, 15.04. 19:30 37 5 76 260° W
Mo, 15.04. 19:00 29 5 68 260° W
Mo, 15.04. 18:30 28 4 69 260° W
Ortszeit Untergrenze Bedeckung Gattung
total tief tief mittel hoch
Mo, 15.04. 20:00 1500 m 7/8 7/8 - - -
Mo, 15.04. 14:00 870 m 6/8 6/8 - - -
Mo, 15.04. 8:00 1230 m 8/8 1/8 - - -
Mo, 15.04. 2:00 6900 m 6/8 5/8 - - -
So, 14.04. 20:00 6900 m 7/8 7/8 - - -
So, 14.04. 14:00 7800 m 7/8 0/8 - - -
So, 14.04. 8:00 9000 m 4/8 0/8 - - -
So, 14.04. 2:00 7500 m 8/8 0/8 - - -
Ortszeit Bedeckungsgrad in Achtel und Wolkenuntergrenze
Mo, 15.04. 21:10 7
Mo, 15.04. 21:00 1(1410m) 4(2100m) 7(6900m)
Mo, 15.04. 20:50 1(1410m) 4(2100m) 7(6900m)
Mo, 15.04. 20:40 7
Mo, 15.04. 20:30 2(1380m) 6(2100m) 7(7200m)
Mo, 15.04. 20:20 2(1380m) 6(2100m) 7(7200m)
Mo, 15.04. 20:00 6(1500m) 7(2100m) 7(7200m)
Mo, 15.04. 19:30 1(1470m) 7(1800m) 7(7500m)
Mo, 15.04. 19:00 1(1500m) 7(2100m)
Mo, 15.04. 18:30 1(1380m) 7(2100m)
Ortszeit Stationsdruck (hPa) Tendenz (hPa in 3 Std.)
Mo, 15.04. 20:00 904 - 0,6
Mo, 15.04. 14:00 908 - 2,5
Mo, 15.04. 8:00 911 - 1,1
Mo, 15.04. 2:00 913 - 1,7
So, 14.04. 20:00 916 - 1,4
So, 14.04. 14:00 919 - 1,0
So, 14.04. 8:00 920 - 0,4
So, 14.04. 2:00 921 - 1,0
Ortszeit Stationsdruck (hPa) Tendenz (hPa in 3 Std.)
Mo, 15.04. 21:10 905 keine Meldung
Mo, 15.04. 21:00 905 + 0,1
Mo, 15.04. 20:50 905 keine Meldung
Mo, 15.04. 20:40 905 keine Meldung
Mo, 15.04. 20:30 905 - 0,3
Mo, 15.04. 20:20 905 keine Meldung
Mo, 15.04. 20:00 904 - 0,6
Mo, 15.04. 19:30 904 - 0,9
Mo, 15.04. 19:00 904 - 1,2
Mo, 15.04. 18:30 905 - 1,5
Ortszeit Schneehöhe (cm)
Mo, 15.04. 20:00 0
Mo, 15.04. 14:00 0
Mo, 15.04. 8:00 0
Mo, 15.04. 2:00 0
So, 14.04. 20:00 0
So, 14.04. 14:00 0
So, 14.04. 8:00 0
So, 14.04. 2:00 0
Ortszeit Schneehöhe (cm)
Mo, 15.04. 21:10 -
Mo, 15.04. 21:00 0
Mo, 15.04. 20:50 0
Mo, 15.04. 20:40 -
Mo, 15.04. 20:30 0
Mo, 15.04. 20:20 0
Mo, 15.04. 20:00 0
Mo, 15.04. 19:30 0
Mo, 15.04. 19:00 0
Mo, 15.04. 18:30 0
Link zu dieser Seite / Seite empfehlen

Das Wetter in ...